Time;durP1;ratioP1;P1;durP2;ratioP2;P2;SDS_P1;SDS_P2;PMS_P1;PMS_P2;Temp;Humidity;BMP_temperature;BMP_pressure;BME280_temperature;BME280_humidity;BME280_pressure;Samples;Min_cycle;Max_cycle;Signal;HPM_P1;HPM_P2
2023/06/09 00:00:11;;;;;;;9.40;3.70;;;27.60;46.90;;;;;;5016760;28;20414;-76
2023/06/09 00:02:44;;;;;;;7.13;3.73;;;27.60;47.00;;;;;;5014810;28;20481;-76
2023/06/09 00:05:13;;;;;;;7.50;3.80;;;27.50;47.10;;;;;;5013091;28;20422;-77
2023/06/09 00:07:42;;;;;;;5.80;3.37;;;27.50;47.10;;;;;;5013179;28;20498;-77
2023/06/09 00:10:11;;;;;;;6.20;2.93;;;27.50;47.10;;;;;;5014933;28;20430;-77
2023/06/09 00:12:40;;;;;;;8.33;3.43;;;27.50;47.20;;;;;;5013515;28;20474;-77
2023/06/09 00:15:10;;;;;;;3.47;3.17;;;27.50;47.20;;;;;;5010291;28;20424;-77
2023/06/09 00:17:39;;;;;;;5.10;3.40;;;27.50;47.30;;;;;;5004116;28;20419;-77
2023/06/09 00:20:10;;;;;;;4.40;3.20;;;27.50;47.40;;;;;;5016004;28;20423;-76
2023/06/09 00:22:42;;;;;;;5.47;3.40;;;27.40;47.30;;;;;;5011057;28;20797;-77
2023/06/09 00:25:11;;;;;;;5.93;3.43;;;27.40;47.50;;;;;;5019169;28;20454;-77
2023/06/09 00:27:40;;;;;;;5.50;3.43;;;27.40;47.50;;;;;;5018308;28;20444;-76
2023/06/09 00:30:09;;;;;;;3.60;2.93;;;27.40;47.50;;;;;;5008985;28;20483;-78
2023/06/09 00:32:46;;;;;;;5.97;3.27;;;27.40;47.60;;;;;;5015491;28;20443;-77
2023/06/09 00:35:16;;;;;;;6.93;3.77;;;27.40;47.60;;;;;;5015679;28;20423;-78
2023/06/09 00:37:44;;;;;;;5.57;3.10;;;27.40;47.60;;;;;;4996680;28;20473;-77
2023/06/09 00:40:14;;;;;;;6.27;3.30;;;27.40;47.60;;;;;;5012539;28;20449;-78
2023/06/09 00:42:42;;;;;;;4.17;2.90;;;27.40;47.70;;;;;;5018860;28;20964;-77
2023/06/09 00:45:10;;;;;;;6.23;3.10;;;27.40;47.70;;;;;;5020166;28;20427;-78
2023/06/09 00:47:38;;;;;;;3.43;3.03;;;27.40;47.80;;;;;;5014735;28;20843;-78
2023/06/09 00:50:07;;;;;;;3.93;3.00;;;27.30;47.80;;;;;;5022503;28;20420;-77
2023/06/09 00:52:36;;;;;;;4.67;3.20;;;27.30;47.90;;;;;;5019914;28;20450;-77
2023/06/09 00:55:05;;;;;;;4.57;3.40;;;27.30;47.90;;;;;;5023720;28;20448;-77
2023/06/09 00:57:34;;;;;;;4.37;2.53;;;27.30;47.80;;;;;;5022636;28;20422;-76
2023/06/09 01:00:06;;;;;;;4.50;3.33;;;27.30;47.80;;;;;;5021410;28;20452;-76
2023/06/09 01:02:38;;;;;;;4.87;2.87;;;27.30;47.90;;;;;;5019070;28;20480;-76
2023/06/09 01:05:08;;;;;;;5.90;2.97;;;27.30;48.00;;;;;;5023411;28;20458;-76
2023/06/09 01:07:43;;;;;;;3.80;3.00;;;27.20;48.10;;;;;;5022604;28;20510;-77
2023/06/09 01:10:15;;;;;;;5.83;3.53;;;27.20;48.00;;;;;;5022015;28;20535;-77
2023/06/09 01:12:48;;;;;;;3.10;2.80;;;27.20;48.10;;;;;;5021684;28;20455;-76
2023/06/09 01:15:18;;;;;;;3.17;2.83;;;27.20;48.20;;;;;;5026689;28;20485;-77
2023/06/09 01:17:49;;;;;;;4.30;2.93;;;27.20;48.20;;;;;;5019624;28;20494;-76
2023/06/09 01:20:18;;;;;;;3.97;2.97;;;27.20;48.10;;;;;;5014750;28;20475;-77
2023/06/09 01:22:51;;;;;;;6.53;3.17;;;27.20;48.20;;;;;;5019876;28;20533;-77
2023/06/09 01:25:31;;;;;;;3.20;2.80;;;27.20;48.30;;;;;;5019738;28;20457;-77
2023/06/09 01:28:00;;;;;;;5.23;3.00;;;27.20;48.30;;;;;;5019461;28;20510;-76
2023/06/09 01:30:29;;;;;;;4.03;3.17;;;27.10;48.30;;;;;;5019064;28;20419;-76
2023/06/09 01:32:58;;;;;;;5.70;3.30;;;27.10;48.30;;;;;;5018966;28;20450;-77
2023/06/09 01:35:26;;;;;;;5.67;3.03;;;27.10;48.40;;;;;;5014350;28;20462;-77
2023/06/09 01:37:56;;;;;;;2.97;2.57;;;27.10;48.30;;;;;;5018998;28;20434;-77
2023/06/09 01:40:24;;;;;;;4.33;3.07;;;27.10;48.40;;;;;;5018797;28;20444;-77
2023/06/09 01:42:54;;;;;;;4.60;3.00;;;27.10;48.40;;;;;;5014878;28;20500;-76
2023/06/09 01:45:22;;;;;;;2.87;2.67;;;27.10;48.40;;;;;;5018706;28;20522;-77
2023/06/09 01:47:50;;;;;;;3.13;2.80;;;27.10;48.30;;;;;;5018827;28;20471;-77
2023/06/09 01:50:22;;;;;;;4.07;3.10;;;27.10;48.50;;;;;;5018651;28;20447;-77
2023/06/09 01:52:52;;;;;;;4.20;2.77;;;27.10;48.40;;;;;;5015225;28;20476;-77
2023/06/09 01:55:21;;;;;;;3.17;2.73;;;27.00;48.50;;;;;;5017856;28;20447;-78
2023/06/09 01:57:51;;;;;;;4.20;3.00;;;27.00;48.60;;;;;;5019065;28;20458;-78
2023/06/09 02:00:21;;;;;;;4.73;3.03;;;27.10;48.50;;;;;;5017863;28;20473;-78
2023/06/09 02:02:50;;;;;;;3.63;2.50;;;27.00;48.50;;;;;;5017807;28;20468;-77
2023/06/09 02:05:18;;;;;;;3.30;2.87;;;27.00;48.50;;;;;;5018254;28;20527;-78
2023/06/09 02:07:46;;;;;;;5.00;3.10;;;27.00;48.50;;;;;;5016962;28;20435;-77
2023/06/09 02:10:15;;;;;;;8.70;2.90;;;27.00;48.60;;;;;;5013572;28;20423;-78
2023/06/09 02:12:43;;;;;;;3.47;3.17;;;27.00;48.70;;;;;;5015483;28;20480;-78
2023/06/09 02:15:11;;;;;;;3.50;2.97;;;27.00;48.70;;;;;;5015395;28;20423;-78
2023/06/09 02:17:42;;;;;;;4.13;3.10;;;27.00;48.70;;;;;;5016918;28;20518;-78
2023/06/09 02:20:11;;;;;;;4.53;3.13;;;27.00;48.70;;;;;;5016504;28;20475;-78
2023/06/09 02:22:39;;;;;;;3.97;2.90;;;26.90;48.60;;;;;;5018184;28;20482;-78
2023/06/09 02:25:08;;;;;;;4.17;3.03;;;26.90;48.60;;;;;;5009742;28;20435;-78
2023/06/09 02:27:37;;;;;;;3.63;2.70;;;26.90;48.80;;;;;;4999597;28;20437;-78
2023/06/09 02:30:07;;;;;;;3.23;2.97;;;26.90;48.70;;;;;;5010445;28;20426;-78
2023/06/09 02:32:36;;;;;;;3.50;2.70;;;26.90;48.70;;;;;;5019928;28;20455;-76
2023/06/09 02:35:06;;;;;;;5.30;2.70;;;26.90;48.70;;;;;;5001840;28;20415;-78
2023/06/09 02:37:35;;;;;;;4.00;2.80;;;26.90;48.90;;;;;;5009982;28;20445;-79
2023/06/09 02:40:04;;;;;;;3.33;3.07;;;26.90;48.80;;;;;;5020070;28;20431;-78
2023/06/09 02:42:32;;;;;;;4.33;3.37;;;26.90;48.90;;;;;;5001634;28;20512;-78
2023/06/09 02:45:01;;;;;;;3.60;3.30;;;26.80;48.90;;;;;;5017598;28;20422;-78
2023/06/09 02:47:29;;;;;;;3.80;3.20;;;26.80;49.00;;;;;;5017906;28;20499;-79
2023/06/09 02:49:57;;;;;;;6.20;4.10;;;26.80;48.80;;;;;;5018061;28;20448;-78
2023/06/09 02:52:28;;;;;;;4.27;3.60;;;26.80;48.90;;;;;;5017532;28;20459;-78
2023/06/09 02:54:56;;;;;;;6.17;3.40;;;26.80;48.80;;;;;;5018150;28;20426;-78
2023/06/09 02:57:25;;;;;;;4.40;3.90;;;26.80;49.00;;;;;;5009586;28;20523;-79
2023/06/09 02:59:53;;;;;;;4.57;3.77;;;26.80;48.90;;;;;;5007702;28;20411;-78
2023/06/09 03:02:21;;;;;;;5.37;3.80;;;26.80;48.90;;;;;;5014592;28;21058;-78
2023/06/09 03:04:52;;;;;;;6.20;4.40;;;26.80;48.90;;;;;;5016316;28;20455;-78
2023/06/09 03:07:20;;;;;;;5.10;4.07;;;26.80;49.00;;;;;;5016471;28;20444;-78
2023/06/09 03:09:50;;;;;;;5.87;4.33;;;26.80;49.00;;;;;;5016943;28;20476;-78
2023/06/09 03:12:18;;;;;;;4.90;4.50;;;26.80;48.90;;;;;;5016376;28;20455;-78
2023/06/09 03:14:46;;;;;;;7.77;4.60;;;26.80;49.00;;;;;;5016087;28;20433;-77
2023/06/09 03:17:14;;;;;;;6.70;4.37;;;26.70;48.90;;;;;;5012012;28;20427;-75
2023/06/09 03:19:43;;;;;;;6.23;4.90;;;26.70;49.10;;;;;;5013475;28;20444;-76
2023/06/09 03:22:11;;;;;;;5.33;4.80;;;26.70;49.00;;;;;;5016045;28;20431;-75
2023/06/09 03:24:40;;;;;;;5.90;4.67;;;26.70;48.90;;;;;;5016492;28;20452;-75
2023/06/09 03:27:10;;;;;;;5.90;5.07;;;26.70;49.00;;;;;;5011074;28;20423;-76
2023/06/09 03:29:38;;;;;;;7.10;5.47;;;26.70;49.00;;;;;;5015059;28;20463;-76
2023/06/09 03:32:06;;;;;;;5.93;4.90;;;26.70;48.90;;;;;;5012683;28;20544;-75
2023/06/09 03:34:35;;;;;;;6.57;5.27;;;26.70;48.90;;;;;;5014553;28;20458;-76
2023/06/09 03:37:04;;;;;;;5.80;5.30;;;26.70;49.00;;;;;;5016074;28;20430;-76
2023/06/09 03:39:33;;;;;;;5.83;4.87;;;26.70;49.00;;;;;;5018318;28;20445;-75
2023/06/09 03:42:01;;;;;;;7.30;5.67;;;26.70;49.00;;;;;;5018843;28;20456;-76
2023/06/09 03:44:31;;;;;;;6.37;5.70;;;26.60;49.00;;;;;;5019786;28;20446;-76
2023/06/09 03:46:59;;;;;;;6.23;5.63;;;26.60;49.10;;;;;;5020020;28;20430;-77
2023/06/09 03:49:27;;;;;;;6.23;5.03;;;26.60;49.00;;;;;;5016490;28;20456;-76
2023/06/09 03:51:55;;;;;;;6.37;5.50;;;26.70;49.00;;;;;;5010422;28;20487;-77
2023/06/09 03:54:23;;;;;;;7.10;6.00;;;26.60;48.90;;;;;;5015043;28;20502;-76
2023/06/09 03:56:51;;;;;;;7.70;6.00;;;26.60;48.90;;;;;;5019345;28;20440;-77
2023/06/09 03:59:19;;;;;;;7.63;6.07;;;26.60;49.50;;;;;;5019171;28;20471;-76
2023/06/09 04:01:49;;;;;;;6.87;6.07;;;26.60;49.00;;;;;;5017488;28;20475;-76
2023/06/09 04:04:17;;;;;;;7.40;6.10;;;26.60;49.00;;;;;;5018537;28;20535;-76
2023/06/09 04:06:45;;;;;;;8.33;6.43;;;26.60;49.00;;;;;;5018091;28;20440;-77
2023/06/09 04:09:15;;;;;;;8.30;5.80;;;26.60;49.00;;;;;;5015094;28;20427;-77
2023/06/09 04:11:43;;;;;;;10.37;6.43;;;26.60;49.00;;;;;;5013519;28;20479;-76
2023/06/09 04:14:11;;;;;;;7.37;6.03;;;26.60;49.00;;;;;;5009374;28;20513;-77
2023/06/09 04:16:39;;;;;;;9.83;6.40;;;26.60;49.00;;;;;;5003080;28;20420;-77
2023/06/09 04:19:09;;;;;;;6.53;5.90;;;26.60;48.80;;;;;;5002292;28;20464;-77
2023/06/09 04:21:38;;;;;;;6.67;5.97;;;26.70;49.00;;;;;;5014102;28;20416;-77
2023/06/09 04:24:08;;;;;;;7.33;6.53;;;26.60;48.70;;;;;;5017872;28;20444;-77
2023/06/09 04:26:39;;;;;;;6.97;6.00;;;26.60;48.80;;;;;;5011558;28;20453;-77
2023/06/09 04:29:09;;;;;;;7.00;6.30;;;26.60;48.90;;;;;;5017040;28;20419;-77
2023/06/09 04:31:42;;;;;;;6.60;5.60;;;26.60;48.70;;;;;;5016782;28;20436;-77
2023/06/09 04:34:12;;;;;;;6.13;5.53;;;26.60;48.80;;;;;;5008553;28;20443;-77
2023/06/09 04:36:41;;;;;;;7.37;6.17;;;26.70;48.80;;;;;;5015839;28;20498;-77
2023/06/09 04:39:12;;;;;;;7.87;6.00;;;26.70;48.80;;;;;;5016801;28;20449;-77
2023/06/09 04:41:40;;;;;;;7.20;6.20;;;26.60;48.80;;;;;;5016697;28;20453;-78
2023/06/09 04:44:09;;;;;;;8.07;5.83;;;26.60;48.70;;;;;;5009812;28;20415;-77
2023/06/09 04:46:38;;;;;;;8.53;6.40;;;26.70;48.80;;;;;;5017030;28;20440;-78
2023/06/09 04:49:09;;;;;;;10.57;6.00;;;26.60;48.60;;;;;;5016945;28;20448;-78
2023/06/09 04:51:41;;;;;;;7.70;6.10;;;26.70;48.70;;;;;;5021451;28;20442;-78
2023/06/09 04:54:10;;;;;;;7.73;5.77;;;26.70;48.50;;;;;;5017293;28;20507;-78
2023/06/09 04:56:39;;;;;;;7.10;5.77;;;26.70;48.60;;;;;;5017376;28;20461;-78
2023/06/09 04:59:07;;;;;;;8.23;6.27;;;26.70;48.60;;;;;;5010834;28;20446;-77
2023/06/09 05:01:37;;;;;;;7.93;5.60;;;26.70;48.60;;;;;;5016161;28;20463;-78
2023/06/09 05:04:05;;;;;;;5.97;5.37;;;26.70;48.60;;;;;;5015259;28;20415;-78
2023/06/09 05:06:33;;;;;;;8.60;6.33;;;26.70;48.60;;;;;;5015051;28;20505;-78
2023/06/09 05:09:03;;;;;;;7.93;5.80;;;26.70;48.50;;;;;;5014972;28;20419;-78
2023/06/09 05:11:31;;;;;;;7.80;5.63;;;26.70;48.30;;;;;;5014417;28;20448;-78
2023/06/09 05:13:59;;;;;;;6.73;5.53;;;26.80;48.40;;;;;;5013945;28;20497;-78
2023/06/09 05:16:28;;;;;;;9.10;6.33;;;26.80;48.30;;;;;;5013880;28;20517;-77
2023/06/09 05:18:56;;;;;;;6.70;5.90;;;26.80;48.30;;;;;;5011028;28;20427;-77
2023/06/09 05:21:25;;;;;;;8.47;6.40;;;26.80;48.30;;;;;;5009545;28;20407;-77
2023/06/09 05:23:53;;;;;;;7.00;5.30;;;26.80;48.30;;;;;;5019035;28;20411;-77
2023/06/09 05:26:22;;;;;;;6.07;5.23;;;26.80;48.30;;;;;;5018937;28;20451;-77
2023/06/09 05:28:50;;;;;;;5.30;4.80;;;26.80;48.10;;;;;;5020515;28;20418;-78
2023/06/09 05:31:19;;;;;;;6.97;5.53;;;26.90;48.10;;;;;;5019027;28;20494;-77
2023/06/09 05:33:47;;;;;;;6.20;5.60;;;26.90;48.20;;;;;;5018839;28;20475;-77
2023/06/09 05:36:15;;;;;;;7.53;5.47;;;26.90;48.00;;;;;;5017983;28;20411;-77
2023/06/09 05:38:43;;;;;;;5.13;4.50;;;26.90;47.90;;;;;;5018496;28;20450;-78
2023/06/09 05:41:14;;;;;;;6.43;5.40;;;26.90;47.90;;;;;;5019397;28;20411;-77
2023/06/09 05:43:44;;;;;;;5.30;4.90;;;27.00;48.00;;;;;;5013291;28;20461;-78
2023/06/09 05:46:12;;;;;;;5.53;4.60;;;27.00;47.80;;;;;;5011235;28;20928;-78
2023/06/09 05:48:40;;;;;;;5.57;5.03;;;27.00;47.70;;;;;;5013271;28;20423;-76
2023/06/09 05:51:08;;;;;;;5.63;4.93;;;27.00;47.90;;;;;;5017577;28;20491;-77
2023/06/09 05:53:37;;;;;;;5.67;5.17;;;27.00;48.40;;;;;;5007428;28;20490;-77
2023/06/09 05:56:05;;;;;;;6.17;5.20;;;27.00;47.80;;;;;;5011725;28;20503;-77
2023/06/09 05:58:34;;;;;;;5.87;5.23;;;26.90;47.80;;;;;;5009183;28;20476;-77
2023/06/09 06:01:03;;;;;;;5.50;5.00;;;27.00;47.70;;;;;;5013322;28;20465;-78
2023/06/09 06:03:33;;;;;;;4.97;4.57;;;27.00;47.80;;;;;;5001028;28;20446;-76
2023/06/09 06:06:01;;;;;;;5.70;5.17;;;27.00;47.70;;;;;;5006105;28;20479;-78
2023/06/09 06:08:29;;;;;;;5.00;4.50;;;27.00;47.80;;;;;;4997766;28;20447;-76
2023/06/09 06:10:57;;;;;;;5.50;4.63;;;27.00;47.70;;;;;;5013006;28;20415;-77
2023/06/09 06:13:26;;;;;;;6.20;5.00;;;27.00;47.60;;;;;;5011450;28;20468;-77
2023/06/09 06:15:54;;;;;;;7.87;5.37;;;27.00;47.60;;;;;;5015879;28;20507;-77
2023/06/09 06:18:23;;;;;;;4.57;4.17;;;27.00;47.80;;;;;;5003422;28;20411;-77
2023/06/09 06:20:51;;;;;;;6.33;4.83;;;27.10;47.70;;;;;;5005766;28;20449;-78
2023/06/09 06:23:19;;;;;;;10.57;5.07;;;27.10;47.60;;;;;;5003270;28;20465;-77
2023/06/09 06:25:47;;;;;;;5.10;4.43;;;27.10;47.40;;;;;;5004027;28;20472;-77
2023/06/09 06:28:15;;;;;;;6.70;4.70;;;27.10;47.50;;;;;;5006926;28;20434;-78
2023/06/09 06:30:43;;;;;;;6.40;4.80;;;27.10;47.40;;;;;;5008370;28;20622;-78
2023/06/09 06:33:11;;;;;;;6.57;4.30;;;27.10;47.60;;;;;;5001570;28;20446;-77
2023/06/09 06:35:41;;;;;;;7.07;5.10;;;27.10;47.60;;;;;;5001047;28;20458;-78
2023/06/09 06:38:09;;;;;;;5.57;5.07;;;27.20;47.60;;;;;;5016878;28;20427;-77
2023/06/09 06:40:37;;;;;;;6.50;4.90;;;27.20;47.70;;;;;;5014925;28;20863;-77
2023/06/09 06:43:05;;;;;;;5.07;4.67;;;27.20;47.80;;;;;;5003788;28;20522;-78
2023/06/09 06:45:33;;;;;;;5.80;4.80;;;27.30;47.70;;;;;;5008705;28;20489;-78
2023/06/09 06:48:01;;;;;;;16.23;4.73;;;27.30;47.60;;;;;;5002837;28;20495;-78
2023/06/09 06:50:29;;;;;;;4.83;4.37;;;27.30;47.70;;;;;;5002024;28;20478;-77
2023/06/09 06:53:00;;;;;;;5.93;4.77;;;27.40;47.60;;;;;;4996270;28;20467;-78
2023/06/09 06:55:28;;;;;;;5.93;4.50;;;27.40;47.60;;;;;;5003706;28;20471;-78
2023/06/09 06:58:00;;;;;;;8.77;4.33;;;27.50;47.40;;;;;;5011980;28;20523;-76
2023/06/09 07:00:28;;;;;;;6.47;4.60;;;27.50;47.40;;;;;;4998546;28;20511;-78
2023/06/09 07:02:57;;;;;;;4.90;4.20;;;27.50;47.20;;;;;;4999163;28;20460;-79
2023/06/09 07:05:25;;;;;;;5.07;4.60;;;27.50;47.30;;;;;;5003099;28;20458;-78
2023/06/09 07:07:53;;;;;;;5.10;4.60;;;27.50;47.20;;;;;;5006265;28;20497;-78
2023/06/09 07:10:23;;;;;;;6.63;4.80;;;27.60;47.20;;;;;;5002656;28;20462;-79
2023/06/09 07:12:51;;;;;;;7.93;4.20;;;27.60;47.10;;;;;;5004677;28;20538;-79
2023/06/09 07:15:19;;;;;;;4.70;4.40;;;27.60;47.00;;;;;;5004166;28;20447;-78
2023/06/09 07:17:47;;;;;;;8.37;4.80;;;27.70;47.00;;;;;;4999558;28;20436;-77
2023/06/09 07:20:15;;;;;;;4.60;4.20;;;27.70;46.90;;;;;;4997766;28;20449;-79
2023/06/09 07:22:46;;;;;;;7.10;4.43;;;27.70;47.00;;;;;;5014206;28;20439;-78
2023/06/09 07:25:16;;;;;;;4.50;4.10;;;27.80;46.80;;;;;;5012566;28;20563;-79
2023/06/09 07:27:46;;;;;;;9.60;4.20;;;27.80;46.80;;;;;;5001845;28;20491;-79
2023/06/09 07:30:15;;;;;;;4.40;4.00;;;27.90;46.70;;;;;;5006002;28;20408;-78
2023/06/09 07:32:43;;;;;;;4.37;4.00;;;27.90;46.60;;;;;;5005967;28;20518;-79
2023/06/09 07:35:12;;;;;;;5.47;4.00;;;28.00;46.70;;;;;;4998366;28;20507;-79
2023/06/09 07:37:42;;;;;;;4.53;4.13;;;28.00;46.60;;;;;;4993816;28;20437;-79
2023/06/09 07:40:10;;;;;;;5.03;4.50;;;28.10;46.50;;;;;;5004225;28;20420;-79
2023/06/09 07:42:48;;;;;;;4.30;4.00;;;28.10;46.30;;;;;;5013780;28;20958;-78
2023/06/09 07:45:16;;;;;;;4.83;4.27;;;28.20;46.30;;;;;;5011236;28;20441;-78
2023/06/09 07:47:44;;;;;;;5.80;4.30;;;28.30;46.10;;;;;;5012899;28;20418;-79
2023/06/09 07:50:12;;;;;;;5.13;3.70;;;28.30;46.00;;;;;;5010597;28;20444;-79
2023/06/09 07:52:41;;;;;;;4.40;4.03;;;28.40;46.00;;;;;;5004337;28;20482;-79
2023/06/09 07:55:09;;;;;;;4.20;3.67;;;28.50;45.90;;;;;;5003628;28;20499;-79
2023/06/09 07:57:43;;;;;;;4.60;4.20;;;28.50;45.80;;;;;;4994425;28;20424;-78
2023/06/09 08:00:15;;;;;;;4.23;3.83;;;28.60;45.80;;;;;;5012319;28;20427;-79
2023/06/09 08:02:44;;;;;;;4.03;3.73;;;28.60;45.50;;;;;;5013298;28;20443;-79
2023/06/09 08:05:12;;;;;;;4.20;3.80;;;28.70;45.60;;;;;;5003495;28;20456;-79
2023/06/09 08:07:40;;;;;;;4.30;3.87;;;28.70;45.40;;;;;;4994002;28;20482;-78
2023/06/09 08:10:09;;;;;;;4.07;3.70;;;28.80;45.40;;;;;;4994933;28;20484;-79
2023/06/09 08:12:38;;;;;;;4.40;4.10;;;28.80;45.20;;;;;;5007469;28;20826;-79
2023/06/09 08:15:07;;;;;;;4.07;3.50;;;28.90;45.10;;;;;;4998026;28;20560;-79
2023/06/09 08:17:37;;;;;;;3.80;3.60;;;29.00;45.10;;;;;;5006380;28;20451;-79
2023/06/09 08:20:06;;;;;;;4.17;3.80;;;29.00;45.00;;;;;;4998107;28;20449;-79
2023/06/09 08:22:35;;;;;;;3.83;3.60;;;29.10;44.90;;;;;;5013367;28;20439;-78
2023/06/09 08:25:04;;;;;;;4.30;4.00;;;29.20;44.80;;;;;;5005223;28;21267;-78
2023/06/09 08:27:32;;;;;;;4.20;3.80;;;29.20;44.70;;;;;;5009943;28;20452;-80
2023/06/09 08:30:00;;;;;;;3.80;3.40;;;29.30;44.60;;;;;;5009431;28;20446;-79
2023/06/09 08:32:28;;;;;;;4.00;3.70;;;29.40;44.50;;;;;;4994562;28;20463;-79
2023/06/09 08:35:07;;;;;;;4.00;3.60;;;29.40;44.30;;;;;;4993644;28;20469;-79
2023/06/09 08:37:36;;;;;;;4.37;3.70;;;29.50;44.20;;;;;;4995846;28;20483;-78
2023/06/09 08:40:07;;;;;;;4.00;3.70;;;29.60;44.20;;;;;;5004063;28;20987;-79
2023/06/09 08:42:37;;;;;;;4.47;3.63;;;29.60;44.00;;;;;;5007145;28;20460;-79
2023/06/09 08:45:07;;;;;;;3.50;3.20;;;29.70;44.00;;;;;;5017500;28;20441;-79
2023/06/09 08:47:37;;;;;;;3.60;3.30;;;29.70;43.80;;;;;;5012489;28;20427;-77
2023/06/09 08:50:08;;;;;;;3.57;3.37;;;29.80;43.70;;;;;;5012491;28;20471;-80
2023/06/09 08:52:37;;;;;;;3.90;3.60;;;29.90;43.60;;;;;;5012665;28;20450;-77
2023/06/09 08:55:06;;;;;;;3.70;3.50;;;29.90;43.50;;;;;;5011343;28;20478;-77
2023/06/09 08:57:34;;;;;;;3.77;3.30;;;30.00;43.50;;;;;;5011782;28;20487;-78
2023/06/09 09:00:08;;;;;;;3.50;3.20;;;30.00;43.30;;;;;;5010854;28;20427;-79
2023/06/09 09:02:37;;;;;;;3.97;3.67;;;30.10;43.20;;;;;;5014891;28;20479;-77
2023/06/09 09:05:07;;;;;;;3.77;3.50;;;30.20;43.10;;;;;;5014732;28;20457;-78
2023/06/09 09:07:35;;;;;;;3.57;3.27;;;30.20;42.90;;;;;;5015003;28;20490;-79
2023/06/09 09:10:03;;;;;;;4.03;3.63;;;30.30;42.90;;;;;;5013729;28;20511;-79
2023/06/09 09:12:46;;;;;;;3.27;2.97;;;30.40;42.70;;;;;;5009875;28;20491;-79
2023/06/09 09:15:14;;;;;;;3.40;3.20;;;30.50;42.60;;;;;;5008211;28;20479;-78
2023/06/09 09:17:42;;;;;;;3.67;3.43;;;30.50;42.50;;;;;;5014961;28;20477;-78
2023/06/09 09:20:12;;;;;;;3.77;3.47;;;30.60;42.20;;;;;;5015100;28;20452;-79
2023/06/09 09:22:46;;;;;;;3.10;3.00;;;30.70;42.10;;;;;;5015189;28;20527;-79
2023/06/09 09:25:22;;;;;;;3.17;2.97;;;30.80;42.10;;;;;;5014901;28;20443;-79
2023/06/09 09:28:01;;;;;;;3.43;3.13;;;30.80;41.80;;;;;;5006268;28;20510;-79
2023/06/09 09:30:42;;;;;;;3.63;3.33;;;30.90;41.90;;;;;;5001850;28;20437;-79
2023/06/09 09:33:11;;;;;;;3.43;2.83;;;31.00;41.80;;;;;;5007347;28;20463;-79
2023/06/09 09:35:40;;;;;;;4.77;3.00;;;31.00;41.70;;;;;;5007675;28;20469;-78
2023/06/09 09:38:12;;;;;;;3.20;3.00;;;31.10;41.70;;;;;;5008227;28;20458;-80
2023/06/09 09:40:42;;;;;;;3.67;3.37;;;31.10;41.50;;;;;;4997612;28;20449;-79
2023/06/09 09:43:11;;;;;;;3.33;3.03;;;31.20;41.50;;;;;;4995380;28;20448;-78
2023/06/09 09:45:40;;;;;;;3.27;3.07;;;31.30;41.40;;;;;;4999931;28;20484;-79
2023/06/09 09:48:09;;;;;;;3.50;3.20;;;31.30;41.30;;;;;;5005020;28;20484;-80
2023/06/09 09:50:38;;;;;;;6.70;3.40;;;31.40;41.30;;;;;;5003824;28;20506;-80
2023/06/09 09:53:07;;;;;;;5.50;3.70;;;31.40;41.40;;;;;;5008213;28;20468;-79
2023/06/09 09:55:37;;;;;;;18.53;3.70;;;31.60;41.70;;;;;;5002493;28;20472;-81
2023/06/09 09:58:06;;;;;;;29.20;4.50;;;31.60;41.70;;;;;;5009806;28;20528;-81
2023/06/09 10:00:35;;;;;;;17.17;4.57;;;31.30;41.70;;;;;;5001229;28;20550;-82
2023/06/09 10:03:07;;;;;;;9.70;3.90;;;31.50;41.80;;;;;;5007828;28;20443;-82
2023/06/09 10:05:37;;;;;;;11.93;4.50;;;31.90;40.60;;;;;;5007561;28;20449;-82
2023/06/09 10:08:07;;;;;;;5.90;4.20;;;32.30;39.40;;;;;;5015286;28;20419;-82
2023/06/09 10:10:35;;;;;;;8.87;4.77;;;32.60;38.40;;;;;;5012108;28;20444;-82
2023/06/09 10:13:03;;;;;;;8.87;4.23;;;32.90;37.60;;;;;;5007656;28;20506;-82
2023/06/09 10:15:34;;;;;;;8.20;4.77;;;33.10;36.60;;;;;;5004459;28;20961;-82
2023/06/09 10:18:02;;;;;;;10.87;5.30;;;33.30;36.00;;;;;;5009682;28;20533;-81
2023/06/09 10:20:31;;;;;;;8.77;6.10;;;33.50;35.50;;;;;;5006112;28;20448;-82
2023/06/09 10:22:59;;;;;;;7.20;5.03;;;33.60;35.10;;;;;;5010701;28;20472;-81
2023/06/09 10:25:28;;;;;;;7.80;5.60;;;33.70;34.70;;;;;;5009946;28;20437;-81
2023/06/09 10:27:56;;;;;;;6.23;5.00;;;33.90;34.30;;;;;;4994665;28;21014;-81
2023/06/09 10:30:25;;;;;;;7.03;5.40;;;33.90;33.90;;;;;;5003062;28;20441;-81
2023/06/09 10:32:57;;;;;;;9.80;5.50;;;34.00;34.20;;;;;;5003173;28;20870;-81
2023/06/09 10:35:28;;;;;;;8.20;6.50;;;34.20;33.60;;;;;;5012976;28;20453;-82
2023/06/09 10:37:58;;;;;;;6.03;5.33;;;34.30;33.40;;;;;;4998791;28;20501;-82
2023/06/09 10:40:35;;;;;;;6.20;5.60;;;34.40;33.20;;;;;;5013229;28;20453;-82
2023/06/09 10:43:26;;;;;;;6.80;6.20;;;34.50;33.10;;;;;;5005905;28;20460;-82
2023/06/09 10:45:55;;;;;;;9.73;6.50;;;34.60;33.00;;;;;;5015131;28;20505;-83
2023/06/09 10:48:45;;;;;;;8.97;6.27;;;34.80;32.90;;;;;;5007741;28;20456;-81
2023/06/09 10:51:39;;;;;;;8.27;6.23;;;34.90;33.40;;;;;;5009552;28;20425;-82
2023/06/09 10:54:20;;;;;;;9.90;6.30;;;35.00;33.70;;;;;;5014275;28;20467;-82
2023/06/09 10:56:53;;;;;;;10.30;5.63;;;35.10;32.90;;;;;;5014599;28;20472;-82
2023/06/09 11:00:14;;;;;;;15.97;5.20;;;35.10;32.60;;;;;;5021864;28;20432;-82
2023/06/09 11:02:43;;;;;;;6.43;5.87;;;35.20;32.70;;;;;;5017143;28;20468;-82
2023/06/09 11:05:11;;;;;;;6.90;6.00;;;35.30;32.50;;;;;;5025637;28;20472;-82
2023/06/09 11:07:45;;;;;;;7.67;6.87;;;35.40;32.20;;;;;;5006897;28;20512;-82
2023/06/09 11:10:27;;;;;;;7.17;6.47;;;35.50;32.40;;;;;;5018940;28;20452;-81
2023/06/09 11:12:57;;;;;;;10.87;6.60;;;35.60;32.40;;;;;;5020491;28;20511;-82
2023/06/09 11:15:33;;;;;;;7.57;6.10;;;35.70;32.20;;;;;;5022257;28;20468;-84
2023/06/09 11:18:15;;;;;;;7.60;5.90;;;35.70;31.80;;;;;;5014709;28;20514;-82
2023/06/09 11:20:43;;;;;;;6.43;5.80;;;35.80;31.60;;;;;;5017135;28;21007;-81
2023/06/09 11:23:11;;;;;;;7.80;5.60;;;35.90;31.20;;;;;;5020075;28;20457;-82
2023/06/09 11:25:42;;;;;;;5.90;5.03;;;35.90;30.90;;;;;;5011501;28;20493;-81
2023/06/09 11:28:24;;;;;;;4.93;4.47;;;36.00;30.70;;;;;;5011917;28;20460;-82
2023/06/09 11:31:06;;;;;;;5.77;5.30;;;36.00;30.50;;;;;;5020248;28;20436;-80
2023/06/09 11:33:45;;;;;;;6.00;4.83;;;36.10;30.40;;;;;;5021421;28;20457;-81
2023/06/09 11:36:21;;;;;;;5.37;4.87;;;36.10;30.20;;;;;;5020092;28;20452;-81
2023/06/09 11:38:49;;;;;;;6.70;4.90;;;36.20;30.00;;;;;;5013930;28;20479;-81
2023/06/09 11:41:25;;;;;;;8.03;4.70;;;36.30;30.10;;;;;;5008271;28;20453;-82
2023/06/09 11:43:56;;;;;;;5.80;4.37;;;36.30;30.40;;;;;;5022836;28;20447;-82
2023/06/09 11:46:24;;;;;;;7.10;4.43;;;36.40;30.80;;;;;;5007540;28;20476;-80
2023/06/09 11:49:08;;;;;;;8.47;5.20;;;35.80;30.20;;;;;;5013485;28;20449;-80
2023/06/09 11:51:56;;;;;;;9.00;4.93;;;35.00;31.40;;;;;;5016708;28;20476;-82
2023/06/09 11:54:24;;;;;;;8.43;4.63;;;34.50;32.60;;;;;;5011069;28;20499;-81
2023/06/09 11:56:54;;;;;;;6.60;5.27;;;33.90;32.30;;;;;;5012551;28;20469;-82
2023/06/09 11:59:23;;;;;;;5.10;4.60;;;33.40;31.40;;;;;;5020920;28;20451;-81
2023/06/09 12:02:11;;;;;;;5.20;4.70;;;33.10;31.60;;;;;;5012436;28;20481;-80
2023/06/09 12:04:41;;;;;;;7.13;5.00;;;33.00;32.00;;;;;;5006570;28;20437;-80
2023/06/09 12:07:14;;;;;;;6.93;4.97;;;32.90;31.90;;;;;;5011198;28;20495;-83
2023/06/09 12:09:43;;;;;;;9.70;5.03;;;32.60;31.20;;;;;;5011194;28;20440;-82
2023/06/09 12:12:11;;;;;;;11.70;4.70;;;32.60;32.80;;;;;;5010579;28;20460;-80
2023/06/09 12:14:40;;;;;;;5.33;4.50;;;33.10;32.10;;;;;;5008915;28;20532;-81
2023/06/09 12:17:09;;;;;;;6.80;4.60;;;33.60;31.70;;;;;;5002957;28;20472;-81
2023/06/09 12:19:37;;;;;;;5.40;4.60;;;34.20;31.90;;;;;;5001513;28;20437;-82
2023/06/09 12:22:05;;;;;;;6.20;4.60;;;34.60;31.40;;;;;;5010969;28;20475;-82
2023/06/09 12:24:34;;;;;;;7.80;4.13;;;34.90;30.60;;;;;;5007371;28;20944;-82
2023/06/09 12:27:12;;;;;;;6.03;4.93;;;35.20;30.00;;;;;;5014870;28;20436;-81
2023/06/09 12:29:41;;;;;;;4.73;4.40;;;35.50;29.80;;;;;;5006713;28;20479;-82
2023/06/09 12:32:10;;;;;;;5.20;4.73;;;35.70;29.90;;;;;;5008672;28;20468;-81
2023/06/09 12:34:39;;;;;;;10.93;5.07;;;35.80;29.80;;;;;;5016310;28;20432;-82
2023/06/09 12:37:07;;;;;;;6.97;4.50;;;36.00;29.70;;;;;;5003733;28;20476;-82
2023/06/09 12:39:36;;;;;;;4.53;4.23;;;36.10;29.20;;;;;;5014099;28;20468;-81
2023/06/09 12:42:11;;;;;;;4.80;4.40;;;36.30;28.90;;;;;;5015336;28;20467;-81
2023/06/09 12:44:41;;;;;;;4.20;3.90;;;36.40;28.90;;;;;;5010292;28;20448;-81
2023/06/09 12:47:14;;;;;;;6.53;5.50;;;36.50;28.90;;;;;;5018644;28;20963;-81
2023/06/09 12:49:44;;;;;;;13.27;6.50;;;36.60;28.80;;;;;;5009689;28;20556;-81
2023/06/09 12:52:12;;;;;;;5.90;5.33;;;36.70;28.90;;;;;;5015978;28;20484;-80
2023/06/09 12:54:39;;;;;;;6.50;6.00;;;36.80;28.60;;;;;;5014243;28;20539;-82
2023/06/09 12:57:07;;;;;;;5.93;5.43;;;36.80;28.40;;;;;;5018914;28;20578;-83
2023/06/09 12:59:36;;;;;;;6.13;4.97;;;36.90;28.50;;;;;;5017320;28;20483;-82